sensor_id;sensor_type;location;lat;lon;timestamp;P1;durP1;ratioP1;P2;durP2;ratioP2
33268;SDS011;19640;50.944;5.260;2023-04-09T00:01:39;26.60;;;18.75;;
33268;SDS011;19640;50.944;5.260;2023-04-09T00:04:05;26.77;;;19.35;;
33268;SDS011;19640;50.944;5.260;2023-04-09T00:06:31;24.17;;;19.70;;
33268;SDS011;19640;50.944;5.260;2023-04-09T00:08:56;23.77;;;17.52;;
33268;SDS011;19640;50.944;5.260;2023-04-09T00:11:22;24.48;;;18.58;;
33268;SDS011;19640;50.944;5.260;2023-04-09T00:13:47;28.25;;;18.00;;
33268;SDS011;19640;50.944;5.260;2023-04-09T00:16:13;27.17;;;18.02;;
33268;SDS011;19640;50.944;5.260;2023-04-09T00:18:39;26.38;;;19.23;;
33268;SDS011;19640;50.944;5.260;2023-04-09T00:21:05;24.52;;;17.95;;
33268;SDS011;19640;50.944;5.260;2023-04-09T00:23:32;21.92;;;17.13;;
33268;SDS011;19640;50.944;5.260;2023-04-09T00:25:59;27.10;;;18.45;;
33268;SDS011;19640;50.944;5.260;2023-04-09T00:28:25;29.10;;;19.02;;
33268;SDS011;19640;50.944;5.260;2023-04-09T00:30:50;23.17;;;17.75;;
33268;SDS011;19640;50.944;5.260;2023-04-09T00:33:16;26.77;;;17.98;;
33268;SDS011;19640;50.944;5.260;2023-04-09T00:35:42;26.05;;;16.77;;
33268;SDS011;19640;50.944;5.260;2023-04-09T00:38:07;24.48;;;18.40;;
33268;SDS011;19640;50.944;5.260;2023-04-09T00:40:33;26.80;;;18.42;;
33268;SDS011;19640;50.944;5.260;2023-04-09T00:42:59;20.67;;;16.00;;
33268;SDS011;19640;50.944;5.260;2023-04-09T00:45:26;24.02;;;15.75;;
33268;SDS011;19640;50.944;5.260;2023-04-09T00:47:52;24.20;;;15.68;;
33268;SDS011;19640;50.944;5.260;2023-04-09T00:50:17;23.52;;;16.67;;
33268;SDS011;19640;50.944;5.260;2023-04-09T00:52:43;20.63;;;16.27;;
33268;SDS011;19640;50.944;5.260;2023-04-09T00:55:09;23.55;;;16.30;;
33268;SDS011;19640;50.944;5.260;2023-04-09T00:57:36;20.35;;;14.85;;
33268;SDS011;19640;50.944;5.260;2023-04-09T01:00:02;22.17;;;15.93;;
33268;SDS011;19640;50.944;5.260;2023-04-09T01:02:28;20.42;;;15.80;;
33268;SDS011;19640;50.944;5.260;2023-04-09T01:04:55;21.33;;;16.55;;
33268;SDS011;19640;50.944;5.260;2023-04-09T01:10:08;25.70;;;17.30;;
33268;SDS011;19640;50.944;5.260;2023-04-09T01:15:09;29.75;;;18.90;;
33268;SDS011;19640;50.944;5.260;2023-04-09T01:28:38;35.83;;;19.45;;
33268;SDS011;19640;50.944;5.260;2023-04-09T01:31:13;26.35;;;17.58;;
33268;SDS011;19640;50.944;5.260;2023-04-09T01:33:42;21.20;;;16.48;;
33268;SDS011;19640;50.944;5.260;2023-04-09T01:36:09;25.50;;;17.88;;
33268;SDS011;19640;50.944;5.260;2023-04-09T01:38:36;27.73;;;18.27;;
33268;SDS011;19640;50.944;5.260;2023-04-09T01:41:06;34.25;;;20.10;;
33268;SDS011;19640;50.944;5.260;2023-04-09T01:43:35;24.05;;;16.60;;
33268;SDS011;19640;50.944;5.260;2023-04-09T01:46:02;25.05;;;17.40;;
33268;SDS011;19640;50.944;5.260;2023-04-09T01:48:28;33.25;;;18.67;;
33268;SDS011;19640;50.944;5.260;2023-04-09T01:50:56;29.88;;;18.98;;
33268;SDS011;19640;50.944;5.260;2023-04-09T01:53:22;36.85;;;19.73;;
33268;SDS011;19640;50.944;5.260;2023-04-09T01:55:48;26.70;;;18.73;;
33268;SDS011;19640;50.944;5.260;2023-04-09T01:58:14;30.05;;;19.27;;
33268;SDS011;19640;50.944;5.260;2023-04-09T02:00:44;25.08;;;18.27;;
33268;SDS011;19640;50.944;5.260;2023-04-09T02:05:54;22.00;;;16.10;;
33268;SDS011;19640;50.944;5.260;2023-04-09T02:08:29;24.80;;;16.70;;
33268;SDS011;19640;50.944;5.260;2023-04-09T02:10:57;34.45;;;19.25;;
33268;SDS011;19640;50.944;5.260;2023-04-09T02:13:25;28.92;;;19.60;;
33268;SDS011;19640;50.944;5.260;2023-04-09T02:15:52;32.90;;;19.90;;
33268;SDS011;19640;50.944;5.260;2023-04-09T02:18:26;35.17;;;20.58;;
33268;SDS011;19640;50.944;5.260;2023-04-09T02:20:53;31.35;;;18.70;;
33268;SDS011;19640;50.944;5.260;2023-04-09T02:23:20;29.02;;;19.77;;
33268;SDS011;19640;50.944;5.260;2023-04-09T02:25:46;27.63;;;18.58;;
33268;SDS011;19640;50.944;5.260;2023-04-09T02:28:12;25.33;;;17.88;;
33268;SDS011;19640;50.944;5.260;2023-04-09T02:30:38;27.05;;;18.48;;
33268;SDS011;19640;50.944;5.260;2023-04-09T02:33:03;26.95;;;18.38;;
33268;SDS011;19640;50.944;5.260;2023-04-09T02:35:29;27.02;;;19.15;;
33268;SDS011;19640;50.944;5.260;2023-04-09T02:37:55;24.75;;;18.08;;
33268;SDS011;19640;50.944;5.260;2023-04-09T02:40:20;31.55;;;18.40;;
33268;SDS011;19640;50.944;5.260;2023-04-09T02:42:46;24.45;;;17.50;;
33268;SDS011;19640;50.944;5.260;2023-04-09T02:45:12;25.30;;;17.52;;
33268;SDS011;19640;50.944;5.260;2023-04-09T02:47:37;32.33;;;20.33;;
33268;SDS011;19640;50.944;5.260;2023-04-09T02:50:03;34.10;;;21.60;;
33268;SDS011;19640;50.944;5.260;2023-04-09T02:52:30;30.65;;;19.50;;
33268;SDS011;19640;50.944;5.260;2023-04-09T02:54:55;33.20;;;20.35;;
33268;SDS011;19640;50.944;5.260;2023-04-09T02:57:21;30.70;;;19.35;;
33268;SDS011;19640;50.944;5.260;2023-04-09T02:59:47;29.90;;;18.88;;
33268;SDS011;19640;50.944;5.260;2023-04-09T03:02:12;30.48;;;19.00;;
33268;SDS011;19640;50.944;5.260;2023-04-09T03:04:38;33.00;;;19.75;;
33268;SDS011;19640;50.944;5.260;2023-04-09T03:07:04;36.05;;;20.25;;
33268;SDS011;19640;50.944;5.260;2023-04-09T03:09:29;30.95;;;16.20;;
33268;SDS011;19640;50.944;5.260;2023-04-09T03:11:55;17.98;;;13.65;;
33268;SDS011;19640;50.944;5.260;2023-04-09T03:14:22;20.00;;;13.27;;
33268;SDS011;19640;50.944;5.260;2023-04-09T03:16:48;12.60;;;11.30;;
33268;SDS011;19640;50.944;5.260;2023-04-09T03:19:14;24.13;;;15.95;;
33268;SDS011;19640;50.944;5.260;2023-04-09T03:21:39;19.08;;;13.27;;
33268;SDS011;19640;50.944;5.260;2023-04-09T03:24:05;14.75;;;12.35;;
33268;SDS011;19640;50.944;5.260;2023-04-09T03:26:31;17.17;;;13.20;;
33268;SDS011;19640;50.944;5.260;2023-04-09T03:29:00;20.23;;;13.57;;
33268;SDS011;19640;50.944;5.260;2023-04-09T03:31:27;16.40;;;13.43;;
33268;SDS011;19640;50.944;5.260;2023-04-09T03:33:52;23.42;;;15.27;;
33268;SDS011;19640;50.944;5.260;2023-04-09T03:36:18;35.28;;;20.15;;
33268;SDS011;19640;50.944;5.260;2023-04-09T03:38:44;22.73;;;14.80;;
33268;SDS011;19640;50.944;5.260;2023-04-09T03:41:10;20.80;;;14.10;;
33268;SDS011;19640;50.944;5.260;2023-04-09T03:43:35;19.42;;;13.98;;
33268;SDS011;19640;50.944;5.260;2023-04-09T03:46:10;19.38;;;15.00;;
33268;SDS011;19640;50.944;5.260;2023-04-09T03:48:39;32.67;;;18.98;;
33268;SDS011;19640;50.944;5.260;2023-04-09T03:51:05;32.55;;;18.17;;
33268;SDS011;19640;50.944;5.260;2023-04-09T03:53:35;24.65;;;16.75;;
33268;SDS011;19640;50.944;5.260;2023-04-09T03:56:01;21.73;;;15.20;;
33268;SDS011;19640;50.944;5.260;2023-04-09T03:58:27;28.23;;;17.70;;
33268;SDS011;19640;50.944;5.260;2023-04-09T04:00:53;25.17;;;15.85;;
33268;SDS011;19640;50.944;5.260;2023-04-09T04:03:18;20.75;;;13.75;;
33268;SDS011;19640;50.944;5.260;2023-04-09T04:05:44;17.90;;;12.98;;
33268;SDS011;19640;50.944;5.260;2023-04-09T04:08:10;21.55;;;14.65;;
33268;SDS011;19640;50.944;5.260;2023-04-09T04:10:35;23.45;;;14.85;;
33268;SDS011;19640;50.944;5.260;2023-04-09T04:13:01;24.38;;;15.23;;
33268;SDS011;19640;50.944;5.260;2023-04-09T04:15:27;20.13;;;14.32;;
33268;SDS011;19640;50.944;5.260;2023-04-09T04:17:53;20.73;;;14.18;;
33268;SDS011;19640;50.944;5.260;2023-04-09T04:20:19;20.13;;;14.18;;
33268;SDS011;19640;50.944;5.260;2023-04-09T04:22:45;21.40;;;15.48;;
33268;SDS011;19640;50.944;5.260;2023-04-09T04:25:10;19.70;;;14.98;;
33268;SDS011;19640;50.944;5.260;2023-04-09T04:27:36;21.08;;;14.73;;
33268;SDS011;19640;50.944;5.260;2023-04-09T04:30:05;19.13;;;13.98;;
33268;SDS011;19640;50.944;5.260;2023-04-09T04:32:31;19.33;;;13.65;;
33268;SDS011;19640;50.944;5.260;2023-04-09T04:34:57;12.60;;;11.23;;
33268;SDS011;19640;50.944;5.260;2023-04-09T04:37:22;11.68;;;9.55;;
33268;SDS011;19640;50.944;5.260;2023-04-09T04:39:48;20.98;;;14.68;;
33268;SDS011;19640;50.944;5.260;2023-04-09T04:42:14;20.63;;;14.00;;
33268;SDS011;19640;50.944;5.260;2023-04-09T04:44:40;15.55;;;12.68;;
33268;SDS011;19640;50.944;5.260;2023-04-09T04:47:06;25.40;;;16.02;;
33268;SDS011;19640;50.944;5.260;2023-04-09T04:49:31;13.68;;;10.60;;
33268;SDS011;19640;50.944;5.260;2023-04-09T04:51:57;14.35;;;11.93;;
33268;SDS011;19640;50.944;5.260;2023-04-09T04:54:23;18.77;;;13.52;;
33268;SDS011;19640;50.944;5.260;2023-04-09T04:56:48;20.95;;;14.55;;
33268;SDS011;19640;50.944;5.260;2023-04-09T04:59:14;19.75;;;13.98;;
33268;SDS011;19640;50.944;5.260;2023-04-09T05:01:40;29.40;;;17.50;;
33268;SDS011;19640;50.944;5.260;2023-04-09T05:04:05;18.90;;;14.15;;
33268;SDS011;19640;50.944;5.260;2023-04-09T05:06:31;14.95;;;11.23;;
33268;SDS011;19640;50.944;5.260;2023-04-09T05:08:57;12.50;;;10.10;;
33268;SDS011;19640;50.944;5.260;2023-04-09T05:11:26;11.55;;;10.23;;
33268;SDS011;19640;50.944;5.260;2023-04-09T05:13:52;11.32;;;10.23;;
33268;SDS011;19640;50.944;5.260;2023-04-09T05:16:18;19.50;;;12.80;;
33268;SDS011;19640;50.944;5.260;2023-04-09T05:18:45;24.35;;;15.82;;
33268;SDS011;19640;50.944;5.260;2023-04-09T05:21:11;13.55;;;11.38;;
33268;SDS011;19640;50.944;5.260;2023-04-09T05:23:37;19.67;;;11.27;;
33268;SDS011;19640;50.944;5.260;2023-04-09T05:26:02;13.95;;;11.55;;
33268;SDS011;19640;50.944;5.260;2023-04-09T05:28:28;15.63;;;10.98;;
33268;SDS011;19640;50.944;5.260;2023-04-09T05:30:54;17.85;;;12.52;;
33268;SDS011;19640;50.944;5.260;2023-04-09T05:33:20;15.40;;;11.93;;
33268;SDS011;19640;50.944;5.260;2023-04-09T05:35:45;16.52;;;12.05;;
33268;SDS011;19640;50.944;5.260;2023-04-09T05:38:11;15.68;;;12.95;;
33268;SDS011;19640;50.944;5.260;2023-04-09T05:40:40;17.80;;;12.55;;
33268;SDS011;19640;50.944;5.260;2023-04-09T05:43:08;23.88;;;14.25;;
33268;SDS011;19640;50.944;5.260;2023-04-09T05:45:34;21.80;;;14.98;;
33268;SDS011;19640;50.944;5.260;2023-04-09T05:48:00;24.23;;;16.05;;
33268;SDS011;19640;50.944;5.260;2023-04-09T05:50:25;18.52;;;13.98;;
33268;SDS011;19640;50.944;5.260;2023-04-09T05:52:51;21.30;;;14.75;;
33268;SDS011;19640;50.944;5.260;2023-04-09T05:55:17;27.50;;;18.13;;
33268;SDS011;19640;50.944;5.260;2023-04-09T05:57:42;32.30;;;19.48;;
33268;SDS011;19640;50.944;5.260;2023-04-09T06:00:10;24.35;;;15.63;;
33268;SDS011;19640;50.944;5.260;2023-04-09T06:02:36;22.20;;;15.85;;
33268;SDS011;19640;50.944;5.260;2023-04-09T06:05:02;18.48;;;14.23;;
33268;SDS011;19640;50.944;5.260;2023-04-09T06:07:28;18.08;;;14.10;;
33268;SDS011;19640;50.944;5.260;2023-04-09T06:09:54;19.67;;;13.55;;
33268;SDS011;19640;50.944;5.260;2023-04-09T06:12:20;18.20;;;12.98;;
33268;SDS011;19640;50.944;5.260;2023-04-09T06:14:47;14.30;;;12.40;;
33268;SDS011;19640;50.944;5.260;2023-04-09T06:17:12;14.57;;;12.98;;
33268;SDS011;19640;50.944;5.260;2023-04-09T06:19:38;12.10;;;9.93;;
33268;SDS011;19640;50.944;5.260;2023-04-09T06:22:04;10.77;;;9.48;;
33268;SDS011;19640;50.944;5.260;2023-04-09T06:24:30;10.63;;;9.40;;
33268;SDS011;19640;50.944;5.260;2023-04-09T06:26:57;13.35;;;10.35;;
33268;SDS011;19640;50.944;5.260;2023-04-09T06:29:23;12.80;;;11.27;;
33268;SDS011;19640;50.944;5.260;2023-04-09T06:31:48;12.50;;;10.77;;
33268;SDS011;19640;50.944;5.260;2023-04-09T06:34:14;16.65;;;12.40;;
33268;SDS011;19640;50.944;5.260;2023-04-09T06:36:40;14.75;;;12.80;;
33268;SDS011;19640;50.944;5.260;2023-04-09T06:39:06;17.38;;;13.30;;
33268;SDS011;19640;50.944;5.260;2023-04-09T06:41:31;15.60;;;12.93;;
33268;SDS011;19640;50.944;5.260;2023-04-09T06:43:57;22.35;;;16.67;;
33268;SDS011;19640;50.944;5.260;2023-04-09T06:46:23;36.45;;;22.58;;
33268;SDS011;19640;50.944;5.260;2023-04-09T06:48:49;38.90;;;23.35;;
33268;SDS011;19640;50.944;5.260;2023-04-09T06:51:15;38.10;;;23.92;;
33268;SDS011;19640;50.944;5.260;2023-04-09T06:53:40;37.08;;;24.27;;
33268;SDS011;19640;50.944;5.260;2023-04-09T06:56:06;42.08;;;26.77;;
33268;SDS011;19640;50.944;5.260;2023-04-09T06:58:32;43.45;;;25.90;;
33268;SDS011;19640;50.944;5.260;2023-04-09T07:00:58;40.75;;;25.27;;
33268;SDS011;19640;50.944;5.260;2023-04-09T07:03:24;43.97;;;28.08;;
33268;SDS011;19640;50.944;5.260;2023-04-09T07:05:52;45.47;;;28.20;;
33268;SDS011;19640;50.944;5.260;2023-04-09T07:08:18;46.60;;;28.90;;
33268;SDS011;19640;50.944;5.260;2023-04-09T07:10:44;49.72;;;28.98;;
33268;SDS011;19640;50.944;5.260;2023-04-09T07:13:11;52.67;;;30.25;;
33268;SDS011;19640;50.944;5.260;2023-04-09T07:15:37;50.63;;;30.42;;
33268;SDS011;19640;50.944;5.260;2023-04-09T07:18:03;45.83;;;28.42;;
33268;SDS011;19640;50.944;5.260;2023-04-09T07:20:29;46.78;;;28.17;;
33268;SDS011;19640;50.944;5.260;2023-04-09T07:22:54;46.65;;;28.92;;
33268;SDS011;19640;50.944;5.260;2023-04-09T07:25:20;48.30;;;28.80;;
33268;SDS011;19640;50.944;5.260;2023-04-09T07:27:46;44.95;;;28.17;;
33268;SDS011;19640;50.944;5.260;2023-04-09T07:30:11;45.88;;;28.33;;
33268;SDS011;19640;50.944;5.260;2023-04-09T07:32:37;44.10;;;28.20;;
33268;SDS011;19640;50.944;5.260;2023-04-09T07:35:04;42.53;;;27.23;;
33268;SDS011;19640;50.944;5.260;2023-04-09T07:37:31;45.75;;;28.05;;
33268;SDS011;19640;50.944;5.260;2023-04-09T07:39:56;44.42;;;28.55;;
33268;SDS011;19640;50.944;5.260;2023-04-09T07:42:22;44.83;;;28.50;;
33268;SDS011;19640;50.944;5.260;2023-04-09T07:44:48;47.78;;;28.58;;
33268;SDS011;19640;50.944;5.260;2023-04-09T07:47:13;41.55;;;27.85;;
33268;SDS011;19640;50.944;5.260;2023-04-09T07:49:39;45.28;;;28.52;;
33268;SDS011;19640;50.944;5.260;2023-04-09T07:52:05;44.08;;;28.55;;
33268;SDS011;19640;50.944;5.260;2023-04-09T07:54:31;39.90;;;27.45;;
33268;SDS011;19640;50.944;5.260;2023-04-09T07:56:58;41.05;;;28.73;;
33268;SDS011;19640;50.944;5.260;2023-04-09T07:59:24;38.90;;;26.77;;
33268;SDS011;19640;50.944;5.260;2023-04-09T08:01:50;39.38;;;27.80;;
33268;SDS011;19640;50.944;5.260;2023-04-09T08:04:16;38.03;;;26.85;;
33268;SDS011;19640;50.944;5.260;2023-04-09T08:06:41;36.45;;;25.35;;
33268;SDS011;19640;50.944;5.260;2023-04-09T08:09:10;42.25;;;27.63;;
33268;SDS011;19640;50.944;5.260;2023-04-09T08:11:36;37.75;;;25.75;;
33268;SDS011;19640;50.944;5.260;2023-04-09T08:14:02;38.58;;;25.90;;
33268;SDS011;19640;50.944;5.260;2023-04-09T08:16:28;38.95;;;24.88;;
33268;SDS011;19640;50.944;5.260;2023-04-09T08:18:54;39.08;;;25.35;;
33268;SDS011;19640;50.944;5.260;2023-04-09T08:21:20;39.50;;;25.27;;
33268;SDS011;19640;50.944;5.260;2023-04-09T08:23:47;37.65;;;24.48;;
33268;SDS011;19640;50.944;5.260;2023-04-09T08:26:13;33.55;;;23.33;;
33268;SDS011;19640;50.944;5.260;2023-04-09T08:28:38;34.78;;;23.58;;
33268;SDS011;19640;50.944;5.260;2023-04-09T08:31:04;37.10;;;23.60;;
33268;SDS011;19640;50.944;5.260;2023-04-09T08:33:30;35.72;;;23.17;;
33268;SDS011;19640;50.944;5.260;2023-04-09T08:35:55;33.60;;;22.77;;
33268;SDS011;19640;50.944;5.260;2023-04-09T08:38:21;31.02;;;22.20;;
33268;SDS011;19640;50.944;5.260;2023-04-09T08:40:47;37.08;;;22.30;;
33268;SDS011;19640;50.944;5.260;2023-04-09T08:43:15;34.88;;;24.83;;
33268;SDS011;19640;50.944;5.260;2023-04-09T08:45:43;37.80;;;25.60;;
33268;SDS011;19640;50.944;5.260;2023-04-09T08:48:09;35.50;;;23.15;;
33268;SDS011;19640;50.944;5.260;2023-04-09T08:50:37;34.33;;;22.95;;
33268;SDS011;19640;50.944;5.260;2023-04-09T08:53:04;36.78;;;23.88;;
33268;SDS011;19640;50.944;5.260;2023-04-09T08:55:30;31.63;;;22.10;;
33268;SDS011;19640;50.944;5.260;2023-04-09T08:57:58;28.33;;;20.65;;
33268;SDS011;19640;50.944;5.260;2023-04-09T09:00:25;28.25;;;19.77;;
33268;SDS011;19640;50.944;5.260;2023-04-09T09:03:07;29.23;;;19.90;;
33268;SDS011;19640;50.944;5.260;2023-04-09T09:05:38;28.17;;;19.33;;
33268;SDS011;19640;50.944;5.260;2023-04-09T09:08:09;26.15;;;18.73;;
33268;SDS011;19640;50.944;5.260;2023-04-09T09:10:36;25.70;;;18.75;;
33268;SDS011;19640;50.944;5.260;2023-04-09T09:13:25;26.95;;;19.30;;
33268;SDS011;19640;50.944;5.260;2023-04-09T09:15:53;26.30;;;18.55;;
33268;SDS011;19640;50.944;5.260;2023-04-09T09:18:38;22.90;;;17.48;;
33268;SDS011;19640;50.944;5.260;2023-04-09T09:21:12;26.07;;;18.27;;
33268;SDS011;19640;50.944;5.260;2023-04-09T09:23:40;26.88;;;18.92;;
33268;SDS011;19640;50.944;5.260;2023-04-09T09:26:10;22.00;;;15.48;;
33268;SDS011;19640;50.944;5.260;2023-04-09T09:28:42;22.65;;;17.88;;
33268;SDS011;19640;50.944;5.260;2023-04-09T09:31:09;22.77;;;15.43;;
33268;SDS011;19640;50.944;5.260;2023-04-09T09:33:35;28.27;;;18.95;;
33268;SDS011;19640;50.944;5.260;2023-04-09T09:36:01;19.50;;;15.48;;
33268;SDS011;19640;50.944;5.260;2023-04-09T09:38:28;20.20;;;13.77;;
33268;SDS011;19640;50.944;5.260;2023-04-09T09:40:54;19.90;;;13.15;;
33268;SDS011;19640;50.944;5.260;2023-04-09T09:43:20;18.55;;;13.75;;
33268;SDS011;19640;50.944;5.260;2023-04-09T09:45:46;16.25;;;13.00;;
33268;SDS011;19640;50.944;5.260;2023-04-09T09:48:13;14.45;;;11.07;;
33268;SDS011;19640;50.944;5.260;2023-04-09T09:50:39;12.65;;;10.25;;
33268;SDS011;19640;50.944;5.260;2023-04-09T09:53:06;12.93;;;11.00;;
33268;SDS011;19640;50.944;5.260;2023-04-09T09:55:38;13.38;;;11.98;;
33268;SDS011;19640;50.944;5.260;2023-04-09T09:58:11;11.18;;;9.98;;
33268;SDS011;19640;50.944;5.260;2023-04-09T10:00:41;12.35;;;10.93;;
33268;SDS011;19640;50.944;5.260;2023-04-09T10:03:11;12.80;;;11.35;;
33268;SDS011;19640;50.944;5.260;2023-04-09T10:05:40;13.63;;;12.20;;
33268;SDS011;19640;50.944;5.260;2023-04-09T10:08:06;13.50;;;11.95;;
33268;SDS011;19640;50.944;5.260;2023-04-09T10:10:33;14.00;;;12.52;;
33268;SDS011;19640;50.944;5.260;2023-04-09T10:13:00;15.20;;;10.98;;
33268;SDS011;19640;50.944;5.260;2023-04-09T10:15:27;17.63;;;11.73;;
33268;SDS011;19640;50.944;5.260;2023-04-09T10:17:54;11.68;;;10.48;;
33268;SDS011;19640;50.944;5.260;2023-04-09T10:20:24;12.80;;;11.02;;
33268;SDS011;19640;50.944;5.260;2023-04-09T10:22:55;12.32;;;11.02;;
33268;SDS011;19640;50.944;5.260;2023-04-09T10:25:21;12.45;;;11.13;;
33268;SDS011;19640;50.944;5.260;2023-04-09T10:28:32;14.65;;;12.02;;
33268;SDS011;19640;50.944;5.260;2023-04-09T10:30:40;12.77;;;10.73;;
33268;SDS011;19640;50.944;5.260;2023-04-09T10:33:16;12.65;;;11.15;;
33268;SDS011;19640;50.944;5.260;2023-04-09T10:35:50;12.60;;;10.55;;
33268;SDS011;19640;50.944;5.260;2023-04-09T10:38:20;11.15;;;9.95;;
33268;SDS011;19640;50.944;5.260;2023-04-09T10:43:49;12.05;;;10.65;;
33268;SDS011;19640;50.944;5.260;2023-04-09T10:46:28;10.48;;;9.38;;
33268;SDS011;19640;50.944;5.260;2023-04-09T10:49:16;11.32;;;10.05;;
33268;SDS011;19640;50.944;5.260;2023-04-09T10:59:36;8.27;;;7.47;;
33268;SDS011;19640;50.944;5.260;2023-04-09T11:02:09;9.48;;;8.02;;
33268;SDS011;19640;50.944;5.260;2023-04-09T11:07:43;10.15;;;9.15;;
33268;SDS011;19640;50.944;5.260;2023-04-09T11:10:33;10.80;;;9.70;;
33268;SDS011;19640;50.944;5.260;2023-04-09T11:12:59;11.43;;;9.40;;
33268;SDS011;19640;50.944;5.260;2023-04-09T11:15:26;9.93;;;8.93;;
33268;SDS011;19640;50.944;5.260;2023-04-09T11:17:52;9.10;;;8.05;;
33268;SDS011;19640;50.944;5.260;2023-04-09T11:20:22;9.82;;;8.80;;
33268;SDS011;19640;50.944;5.260;2023-04-09T11:22:52;9.50;;;8.50;;
33268;SDS011;19640;50.944;5.260;2023-04-09T11:25:24;10.63;;;7.70;;
33268;SDS011;19640;50.944;5.260;2023-04-09T11:27:51;7.82;;;6.88;;
33268;SDS011;19640;50.944;5.260;2023-04-09T11:30:17;8.45;;;6.85;;
33268;SDS011;19640;50.944;5.260;2023-04-09T11:32:43;7.70;;;6.90;;
33268;SDS011;19640;50.944;5.260;2023-04-09T11:35:13;7.97;;;6.85;;
33268;SDS011;19640;50.944;5.260;2023-04-09T11:37:41;7.80;;;6.80;;
33268;SDS011;19640;50.944;5.260;2023-04-09T11:40:41;7.63;;;6.65;;
33268;SDS011;19640;50.944;5.260;2023-04-09T11:43:00;7.55;;;6.68;;
33268;SDS011;19640;50.944;5.260;2023-04-09T11:45:28;7.63;;;6.50;;
33268;SDS011;19640;50.944;5.260;2023-04-09T11:47:55;6.28;;;5.68;;
33268;SDS011;19640;50.944;5.260;2023-04-09T11:50:21;7.45;;;6.60;;
33268;SDS011;19640;50.944;5.260;2023-04-09T11:52:47;6.60;;;6.00;;
33268;SDS011;19640;50.944;5.260;2023-04-09T11:55:27;6.63;;;5.93;;
33268;SDS011;19640;50.944;5.260;2023-04-09T11:57:56;6.30;;;5.70;;
33268;SDS011;19640;50.944;5.260;2023-04-09T12:00:25;7.47;;;6.68;;
33268;SDS011;19640;50.944;5.260;2023-04-09T12:03:01;6.68;;;5.63;;
33268;SDS011;19640;50.944;5.260;2023-04-09T12:05:28;5.65;;;5.03;;
33268;SDS011;19640;50.944;5.260;2023-04-09T12:07:57;6.03;;;5.03;;
33268;SDS011;19640;50.944;5.260;2023-04-09T12:10:28;5.95;;;5.35;;
33268;SDS011;19640;50.944;5.260;2023-04-09T12:13:02;5.95;;;5.35;;
33268;SDS011;19640;50.944;5.260;2023-04-09T12:15:30;6.38;;;5.53;;
33268;SDS011;19640;50.944;5.260;2023-04-09T12:18:00;6.28;;;5.25;;
33268;SDS011;19640;50.944;5.260;2023-04-09T12:20:31;5.90;;;5.30;;
33268;SDS011;19640;50.944;5.260;2023-04-09T12:22:59;7.03;;;5.75;;
33268;SDS011;19640;50.944;5.260;2023-04-09T12:25:27;5.40;;;4.90;;
33268;SDS011;19640;50.944;5.260;2023-04-09T12:27:54;7.22;;;5.30;;
33268;SDS011;19640;50.944;5.260;2023-04-09T12:30:20;6.28;;;4.53;;
33268;SDS011;19640;50.944;5.260;2023-04-09T12:32:47;5.35;;;4.85;;
33268;SDS011;19640;50.944;5.260;2023-04-09T12:35:13;6.00;;;5.40;;
33268;SDS011;19640;50.944;5.260;2023-04-09T12:37:39;6.10;;;5.50;;
33268;SDS011;19640;50.944;5.260;2023-04-09T12:40:05;6.63;;;5.57;;
33268;SDS011;19640;50.944;5.260;2023-04-09T12:42:31;5.30;;;4.70;;
33268;SDS011;19640;50.944;5.260;2023-04-09T12:44:57;6.22;;;4.88;;
33268;SDS011;19640;50.944;5.260;2023-04-09T12:47:23;4.90;;;4.15;;
33268;SDS011;19640;50.944;5.260;2023-04-09T12:49:48;5.22;;;4.72;;
33268;SDS011;19640;50.944;5.260;2023-04-09T12:52:14;5.75;;;5.15;;
33268;SDS011;19640;50.944;5.260;2023-04-09T12:54:42;5.25;;;4.75;;
33268;SDS011;19640;50.944;5.260;2023-04-09T12:57:08;5.40;;;4.07;;
33268;SDS011;19640;50.944;5.260;2023-04-09T12:59:34;5.22;;;4.72;;
33268;SDS011;19640;50.944;5.260;2023-04-09T13:01:59;5.60;;;5.00;;
33268;SDS011;19640;50.944;5.260;2023-04-09T13:04:25;4.75;;;4.30;;
33268;SDS011;19640;50.944;5.260;2023-04-09T13:06:51;5.75;;;4.72;;
33268;SDS011;19640;50.944;5.260;2023-04-09T13:09:17;5.47;;;4.72;;
33268;SDS011;19640;50.944;5.260;2023-04-09T13:11:42;4.88;;;4.38;;
33268;SDS011;19640;50.944;5.260;2023-04-09T13:14:08;5.97;;;4.88;;
33268;SDS011;19640;50.944;5.260;2023-04-09T13:16:40;5.55;;;4.72;;
33268;SDS011;19640;50.944;5.260;2023-04-09T13:19:07;6.75;;;5.57;;
33268;SDS011;19640;50.944;5.260;2023-04-09T13:21:33;6.25;;;5.65;;
33268;SDS011;19640;50.944;5.260;2023-04-09T13:23:59;5.90;;;5.28;;
33268;SDS011;19640;50.944;5.260;2023-04-09T13:26:25;6.28;;;5.68;;
33268;SDS011;19640;50.944;5.260;2023-04-09T13:28:50;5.97;;;4.78;;
33268;SDS011;19640;50.944;5.260;2023-04-09T13:31:17;4.80;;;4.28;;
33268;SDS011;19640;50.944;5.260;2023-04-09T13:33:43;5.25;;;4.75;;
33268;SDS011;19640;50.944;5.260;2023-04-09T13:36:08;5.60;;;5.10;;
33268;SDS011;19640;50.944;5.260;2023-04-09T13:38:34;5.68;;;5.15;;
33268;SDS011;19640;50.944;5.260;2023-04-09T13:41:00;4.72;;;4.25;;
33268;SDS011;19640;50.944;5.260;2023-04-09T13:43:25;6.45;;;5.22;;
33268;SDS011;19640;50.944;5.260;2023-04-09T13:45:53;5.55;;;4.93;;
33268;SDS011;19640;50.944;5.260;2023-04-09T13:48:19;5.63;;;4.57;;
33268;SDS011;19640;50.944;5.260;2023-04-09T13:50:45;5.10;;;4.60;;
33268;SDS011;19640;50.944;5.260;2023-04-09T13:53:12;4.80;;;4.25;;
33268;SDS011;19640;50.944;5.260;2023-04-09T13:55:38;5.13;;;4.63;;
33268;SDS011;19640;50.944;5.260;2023-04-09T13:58:03;5.38;;;4.85;;
33268;SDS011;19640;50.944;5.260;2023-04-09T14:00:31;5.55;;;4.53;;
33268;SDS011;19640;50.944;5.260;2023-04-09T14:02:56;5.47;;;4.88;;
33268;SDS011;19640;50.944;5.260;2023-04-09T14:05:22;5.63;;;4.88;;
33268;SDS011;19640;50.944;5.260;2023-04-09T14:07:48;5.72;;;4.88;;
33268;SDS011;19640;50.944;5.260;2023-04-09T14:10:14;6.05;;;5.05;;
33268;SDS011;19640;50.944;5.260;2023-04-09T14:12:40;4.78;;;4.30;;
33268;SDS011;19640;50.944;5.260;2023-04-09T14:15:06;5.30;;;4.80;;
33268;SDS011;19640;50.944;5.260;2023-04-09T14:17:32;5.07;;;4.53;;
33268;SDS011;19640;50.944;5.260;2023-04-09T14:19:58;5.65;;;5.05;;
33268;SDS011;19640;50.944;5.260;2023-04-09T14:22:25;5.10;;;4.07;;
33268;SDS011;19640;50.944;5.260;2023-04-09T14:24:52;4.68;;;4.28;;
33268;SDS011;19640;50.944;5.260;2023-04-09T14:27:18;5.10;;;4.30;;
33268;SDS011;19640;50.944;5.260;2023-04-09T14:29:43;5.53;;;4.90;;
33268;SDS011;19640;50.944;5.260;2023-04-09T14:32:09;4.95;;;4.45;;
33268;SDS011;19640;50.944;5.260;2023-04-09T14:34:35;5.45;;;4.70;;
33268;SDS011;19640;50.944;5.260;2023-04-09T14:37:00;4.07;;;3.67;;
33268;SDS011;19640;50.944;5.260;2023-04-09T14:39:26;5.60;;;4.72;;
33268;SDS011;19640;50.944;5.260;2023-04-09T14:41:52;4.60;;;4.10;;
33268;SDS011;19640;50.944;5.260;2023-04-09T14:44:19;5.43;;;4.85;;
33268;SDS011;19640;50.944;5.260;2023-04-09T14:46:44;4.53;;;3.65;;
33268;SDS011;19640;50.944;5.260;2023-04-09T14:49:10;6.07;;;4.15;;
33268;SDS011;19640;50.944;5.260;2023-04-09T14:51:36;5.35;;;4.85;;
33268;SDS011;19640;50.944;5.260;2023-04-09T14:54:01;4.93;;;4.38;;
33268;SDS011;19640;50.944;5.260;2023-04-09T14:56:27;4.68;;;4.25;;
33268;SDS011;19640;50.944;5.260;2023-04-09T14:58:53;5.28;;;4.05;;
33268;SDS011;19640;50.944;5.260;2023-04-09T15:01:18;8.10;;;4.32;;